createdAt,value
2018-06-22T00:00:57.956Z,6.00
2018-06-22T00:03:25.136Z,8.57
2018-06-22T00:05:52.451Z,10.50
2018-06-22T00:08:19.697Z,8.83
2018-06-22T00:10:46.920Z,10.97
2018-06-22T00:13:14.118Z,8.03
2018-06-22T00:15:41.321Z,8.67
2018-06-22T00:18:08.585Z,13.77
2018-06-22T00:20:35.798Z,9.20
2018-06-22T00:23:02.973Z,7.13
2018-06-22T00:25:30.252Z,5.87
2018-06-22T00:27:57.458Z,9.67
2018-06-22T00:30:24.622Z,7.80
2018-06-22T00:32:51.962Z,11.70
2018-06-22T00:35:19.113Z,6.20
2018-06-22T00:37:46.273Z,12.50
2018-06-22T00:40:13.434Z,12.30
2018-06-22T00:42:40.572Z,8.23
2018-06-22T00:45:07.721Z,9.73
2018-06-22T00:47:34.909Z,10.83
2018-06-22T00:50:02.143Z,13.23
2018-06-22T00:52:29.301Z,11.50
2018-06-22T00:54:56.878Z,10.00
2018-06-22T00:57:24.070Z,9.30
2018-06-22T00:59:51.245Z,12.30
2018-06-22T01:02:18.440Z,15.13
2018-06-22T01:04:45.638Z,10.07
2018-06-22T01:07:12.788Z,10.63
2018-06-22T01:09:39.995Z,9.57
2018-06-22T01:12:07.176Z,6.53
2018-06-22T01:14:34.356Z,17.40
2018-06-22T01:17:01.644Z,8.13
2018-06-22T01:19:28.813Z,10.87
2018-06-22T01:21:56.003Z,8.53
2018-06-22T01:24:23.153Z,5.77
2018-06-22T01:26:50.358Z,8.80
2018-06-22T01:29:23.172Z,19.30
2018-06-22T01:31:50.381Z,7.80
2018-06-22T01:34:17.815Z,8.00
2018-06-22T01:36:44.953Z,10.37
2018-06-22T01:39:12.161Z,8.43
2018-06-22T01:41:39.364Z,9.40
2018-06-22T01:44:06.641Z,8.80
2018-06-22T01:46:34.445Z,8.77
2018-06-22T01:49:01.683Z,11.37
2018-06-22T01:51:28.896Z,10.37
2018-06-22T01:53:56.089Z,28.33
2018-06-22T01:56:23.311Z,8.23
2018-06-22T01:58:50.501Z,12.10
2018-06-22T02:01:17.723Z,14.90
2018-06-22T02:03:44.981Z,11.10
2018-06-22T02:06:12.154Z,10.03
2018-06-22T02:08:39.345Z,16.60
2018-06-22T02:11:06.561Z,8.90
2018-06-22T02:13:33.956Z,10.23
2018-06-22T02:16:01.442Z,10.50
2018-06-22T02:18:28.616Z,10.30
2018-06-22T02:20:55.797Z,9.60
2018-06-22T02:23:23.011Z,11.03
2018-06-22T02:25:50.209Z,13.70
2018-06-22T02:28:17.428Z,10.37
2018-06-22T02:30:44.629Z,7.20
2018-06-22T02:33:12.117Z,12.47
2018-06-22T02:35:39.298Z,8.27
2018-06-22T02:38:06.529Z,7.07
2018-06-22T02:40:33.757Z,9.70
2018-06-22T02:43:00.925Z,6.40
2018-06-22T02:45:28.128Z,11.10
2018-06-22T02:47:55.322Z,16.43
2018-06-22T02:50:22.525Z,13.13
2018-06-22T02:52:49.827Z,11.73
2018-06-22T02:55:17.029Z,11.03
2018-06-22T02:57:44.233Z,13.50
2018-06-22T03:00:11.453Z,12.27
2018-06-22T03:02:38.655Z,10.27
2018-06-22T03:05:05.843Z,10.43
2018-06-22T03:07:33.136Z,7.77
2018-06-22T03:10:02.739Z,11.73
2018-06-22T03:12:29.925Z,3.20
2018-06-22T03:14:57.113Z,5.00
2018-06-22T03:17:24.373Z,10.63
2018-06-22T03:19:51.577Z,4.00
2018-06-22T03:22:18.770Z,6.50
2018-06-22T03:24:46.259Z,3.50
2018-06-22T03:27:13.460Z,9.33
2018-06-22T03:29:40.673Z,4.83
2018-06-22T03:32:07.911Z,7.33
2018-06-22T03:34:35.068Z,3.00
2018-06-22T03:37:02.254Z,6.83
2018-06-22T03:39:29.479Z,8.97
2018-06-22T03:41:56.653Z,15.03
2018-06-22T03:44:23.893Z,3.80
2018-06-22T03:46:51.133Z,9.90
2018-06-22T03:49:18.335Z,7.07
2018-06-22T03:51:45.813Z,8.50
2018-06-22T03:54:14.021Z,14.33
2018-06-22T03:56:41.214Z,10.07
2018-06-22T03:59:08.442Z,9.33
2018-06-22T04:01:35.621Z,7.97
2018-06-22T04:04:02.843Z,13.33
2018-06-22T04:06:30.023Z,13.43
2018-06-22T04:08:57.414Z,7.30
2018-06-22T04:11:24.580Z,11.60
2018-06-22T04:13:51.749Z,11.50
2018-06-22T04:16:18.959Z,14.40
2018-06-22T04:18:46.261Z,11.57
2018-06-22T04:21:13.486Z,13.90
2018-06-22T04:23:40.669Z,8.57
2018-06-22T04:26:07.969Z,8.83
2018-06-22T04:28:35.141Z,13.40
2018-06-22T04:31:02.735Z,23.63
2018-06-22T04:33:29.930Z,9.50
2018-06-22T04:35:57.122Z,12.20
2018-06-22T04:38:24.302Z,8.80
2018-06-22T04:40:51.502Z,6.43
2018-06-22T04:43:18.729Z,6.70
2018-06-22T04:45:45.943Z,7.67
2018-06-22T04:48:13.138Z,9.23
2018-06-22T04:50:40.341Z,8.13
2018-06-22T04:53:07.561Z,6.47
2018-06-22T04:55:34.766Z,10.83
2018-06-22T04:58:01.961Z,17.33
2018-06-22T05:00:29.132Z,7.07
2018-06-22T05:02:56.354Z,10.40
2018-06-22T05:05:23.640Z,11.30
2018-06-22T05:07:50.897Z,5.53
2018-06-22T05:10:18.097Z,11.50
2018-06-22T05:12:45.338Z,7.73
2018-06-22T05:15:12.568Z,13.70
2018-06-22T05:17:40.115Z,11.53
2018-06-22T05:20:07.479Z,10.60
2018-06-22T05:22:34.752Z,5.40
2018-06-22T05:25:01.933Z,12.37
2018-06-22T05:27:29.168Z,5.70
2018-06-22T05:29:56.386Z,7.73
2018-06-22T05:32:23.623Z,4.70
2018-06-22T05:34:50.917Z,5.93
2018-06-22T05:37:18.126Z,7.50
2018-06-22T05:39:45.356Z,7.87
2018-06-22T05:42:12.571Z,3.87
2018-06-22T05:44:39.797Z,7.37
2018-06-22T05:47:07.045Z,7.55
2018-06-22T05:49:34.315Z,5.83
2018-06-22T05:52:01.557Z,12.20
2018-06-22T05:54:28.754Z,5.28
2018-06-22T05:56:55.967Z,6.40
2018-06-22T05:59:23.257Z,5.70
2018-06-22T06:01:50.671Z,4.27
2018-06-22T06:04:17.904Z,7.43
2018-06-22T06:06:45.224Z,11.70
2018-06-22T06:09:12.449Z,3.93
2018-06-22T06:11:39.702Z,10.20
2018-06-22T06:14:07.076Z,3.90
2018-06-22T06:16:34.257Z,3.37
2018-06-22T06:19:01.486Z,4.30
2018-06-22T06:21:28.717Z,7.97
2018-06-22T06:23:55.920Z,9.20
2018-06-22T06:26:23.162Z,8.53
2018-06-22T06:28:50.397Z,4.13
2018-06-22T06:31:17.726Z,5.90
2018-06-22T06:33:44.953Z,9.43
2018-06-22T06:36:12.171Z,6.28
2018-06-22T06:38:39.409Z,4.15
2018-06-22T06:41:06.843Z,8.90
2018-06-22T06:43:34.080Z,7.90
2018-06-22T06:46:01.319Z,5.13
2018-06-22T06:48:28.606Z,7.13
2018-06-22T06:52:47.647Z,5.73
2018-06-22T06:55:14.856Z,9.57
2018-06-22T06:57:42.065Z,7.60
2018-06-22T07:00:09.840Z,9.83
2018-06-22T07:02:37.336Z,4.37
2018-06-22T07:05:04.996Z,7.87
2018-06-22T07:07:32.470Z,9.30
2018-06-22T07:09:59.662Z,6.83
2018-06-22T07:12:26.853Z,8.67
2018-06-22T07:14:54.084Z,9.88
2018-06-22T07:17:21.309Z,8.90
2018-06-22T07:19:49.105Z,7.47
2018-06-22T07:22:16.434Z,7.37
2018-06-22T07:24:43.675Z,9.15
2018-06-22T07:27:10.906Z,8.33
2018-06-22T07:29:38.128Z,11.75
2018-06-22T07:32:05.359Z,10.30
2018-06-22T07:34:32.667Z,7.92
2018-06-22T07:36:59.918Z,12.23
2018-06-22T07:39:27.109Z,10.28
2018-06-22T07:41:54.373Z,14.45
2018-06-22T07:44:21.623Z,9.10
2018-06-22T07:46:49.233Z,11.93
2018-06-22T07:49:16.510Z,11.20
2018-06-22T07:51:43.777Z,10.88
2018-06-22T07:54:11.013Z,7.40
2018-06-22T07:56:38.362Z,12.88
2018-06-22T07:59:05.570Z,11.73
2018-06-22T08:01:32.763Z,15.28
2018-06-22T08:04:00.268Z,9.43
2018-06-22T08:06:27.581Z,9.57
2018-06-22T08:08:54.775Z,11.00
2018-06-22T08:11:22.618Z,11.50
2018-06-22T08:13:49.939Z,15.67
2018-06-22T08:16:17.270Z,14.63
2018-06-22T08:18:44.547Z,11.40
2018-06-22T08:21:11.773Z,9.88
2018-06-22T08:23:39.062Z,12.93
2018-06-22T08:26:07.078Z,11.60
2018-06-22T08:28:34.289Z,10.55
2018-06-22T08:31:01.606Z,13.03
2018-06-22T08:33:28.849Z,14.00
2018-06-22T08:35:56.153Z,10.90
2018-06-22T08:38:23.397Z,10.20
2018-06-22T08:40:51.362Z,10.88
2018-06-22T08:43:18.590Z,5.45
2018-06-22T08:45:45.859Z,10.43
2018-06-22T08:48:13.215Z,9.10
2018-06-22T08:50:40.391Z,10.80
2018-06-22T08:53:07.581Z,7.60
2018-06-22T08:55:35.057Z,12.95
2018-06-22T08:58:02.334Z,8.48
2018-06-22T09:00:29.610Z,8.53
2018-06-22T09:02:56.937Z,12.60
2018-06-22T09:05:24.114Z,10.63
2018-06-22T09:07:51.390Z,10.95
2018-06-22T09:10:18.593Z,7.33
2018-06-22T09:12:45.816Z,9.78
2018-06-22T09:15:13.017Z,14.30
2018-06-22T09:17:40.212Z,12.82
2018-06-22T09:20:07.456Z,14.00
2018-06-22T09:22:34.666Z,15.15
2018-06-22T09:25:01.888Z,14.70
2018-06-22T09:27:29.105Z,12.23
2018-06-22T09:29:56.287Z,12.47
2018-06-22T09:32:23.681Z,14.15
2018-06-22T09:34:50.895Z,14.87
2018-06-22T09:37:18.094Z,11.33
2018-06-22T09:39:45.406Z,12.25
2018-06-22T09:42:12.636Z,12.33
2018-06-22T09:44:40.358Z,14.60
2018-06-22T09:47:08.289Z,13.38
2018-06-22T09:49:35.545Z,13.20
2018-06-22T09:52:02.809Z,9.38
2018-06-22T09:54:30.121Z,13.75
2018-06-22T09:56:57.345Z,9.20
2018-06-22T09:59:24.667Z,15.70
2018-06-22T10:01:52.805Z,8.23
2018-06-22T10:04:20.584Z,10.17
2018-06-22T10:06:48.747Z,9.63
2018-06-22T10:09:15.937Z,9.10
2018-06-22T10:11:43.109Z,15.70
2018-06-22T10:14:10.493Z,16.33
2018-06-22T10:16:37.730Z,16.73
2018-06-22T10:48:26.989Z,23.33
2018-06-22T10:50:54.283Z,11.63
2018-06-22T10:53:21.998Z,16.80
2018-06-22T10:55:49.367Z,13.70
2018-06-22T10:58:16.752Z,12.50
2018-06-22T11:00:44.009Z,10.23
2018-06-22T11:03:11.284Z,10.38
2018-06-22T11:05:38.675Z,14.00
2018-06-22T11:08:05.866Z,17.17
2018-06-22T11:10:33.093Z,16.87
2018-06-22T11:15:27.073Z,7.90
2018-06-22T11:25:14.656Z,9.43
2018-06-22T11:27:41.968Z,8.83
2018-06-22T11:35:02.789Z,16.10
2018-06-22T11:37:31.150Z,13.62
2018-06-22T11:39:58.723Z,11.40
2018-06-22T11:42:26.100Z,11.25
2018-06-22T11:44:53.389Z,11.40
2018-06-22T11:47:20.693Z,10.45
2018-06-22T11:49:47.938Z,7.70
2018-06-22T11:52:15.181Z,12.03
2018-06-22T11:54:42.634Z,15.05
2018-06-22T11:57:09.903Z,12.73
2018-06-22T11:59:37.113Z,18.67
2018-06-22T12:02:04.389Z,12.58
2018-06-22T12:04:31.656Z,10.28
2018-06-22T12:06:58.996Z,12.33
2018-06-22T12:09:26.247Z,17.05
2018-06-22T12:11:53.513Z,11.63
2018-06-22T12:14:20.765Z,10.68
2018-06-22T12:16:48.048Z,10.00
2018-06-22T12:19:15.417Z,13.53
2018-06-22T12:21:42.567Z,11.68
2018-06-22T12:24:09.826Z,12.23
2018-06-22T12:26:37.071Z,13.10
2018-06-22T12:29:04.372Z,14.95
2018-06-22T12:31:31.597Z,10.72
2018-06-22T12:33:58.849Z,11.55
2018-06-22T12:36:26.084Z,10.00
2018-06-22T12:38:53.371Z,12.85
2018-06-22T12:41:20.614Z,10.55
2018-06-22T12:43:47.849Z,12.67
2018-06-22T12:56:02.289Z,13.57
2018-06-22T13:15:36.646Z,8.93
2018-06-22T13:18:03.953Z,8.50
2018-06-22T13:20:31.184Z,15.60
2018-06-22T13:22:58.516Z,9.80
2018-06-22T13:47:27.046Z,11.57
2018-06-22T13:54:47.865Z,12.57
2018-06-22T13:57:15.192Z,25.03
2018-06-22T13:59:42.357Z,15.00
2018-06-22T14:02:09.642Z,11.10
2018-06-22T14:04:42.650Z,13.53
2018-06-22T14:19:24.033Z,13.07
2018-06-22T14:21:51.331Z,12.53
2018-06-22T14:24:18.611Z,11.85
2018-06-22T14:26:45.848Z,8.10
2018-06-22T14:29:13.082Z,16.50
2018-06-22T14:31:41.489Z,14.38
2018-06-22T14:34:08.742Z,13.72
2018-06-22T14:36:36.036Z,13.35
2018-06-22T14:39:05.549Z,8.83
2018-06-22T14:41:32.820Z,11.10
2018-06-22T14:44:00.309Z,11.25
2018-06-22T14:46:27.611Z,9.98
2018-06-22T14:48:54.904Z,11.63
2018-06-22T14:51:22.119Z,9.43
2018-06-22T14:53:56.007Z,9.55
2018-06-22T14:56:29.164Z,10.78
2018-06-22T14:59:02.193Z,10.50
2018-06-22T15:01:35.184Z,13.30
2018-06-22T15:04:08.471Z,13.35
2018-06-22T15:06:41.477Z,10.45
2018-06-22T15:09:09.696Z,18.52
2018-06-22T15:11:37.155Z,11.80
2018-06-22T15:14:04.545Z,14.65
2018-06-22T15:16:31.896Z,16.25
2018-06-22T15:18:59.172Z,17.40
2018-06-22T15:21:27.407Z,14.75
2018-06-22T15:23:54.753Z,18.07
2018-06-22T15:26:22.143Z,16.80
2018-06-22T15:28:49.514Z,17.75
2018-06-22T15:31:16.998Z,14.93
2018-06-22T15:33:50.029Z,14.27
2018-06-22T15:36:23.184Z,16.57
2018-06-22T15:38:56.116Z,16.10
2018-06-22T15:41:29.259Z,12.98
2018-06-22T15:44:02.178Z,13.77
2018-06-22T15:46:35.484Z,10.25
2018-06-22T15:49:08.558Z,8.10
2018-06-22T15:51:41.535Z,9.03
2018-06-22T15:54:14.555Z,9.47
2018-06-22T15:56:41.987Z,15.30
2018-06-22T15:59:09.236Z,11.05
2018-06-22T16:01:36.505Z,15.03
2018-06-22T16:04:10.500Z,14.43
2018-06-22T16:06:38.033Z,12.82
2018-06-22T16:09:07.033Z,18.00
2018-06-22T16:11:34.538Z,15.80
2018-06-22T16:29:17.533Z,21.70
2018-06-22T20:30:52.485Z,12.00
2018-06-22T20:33:21.153Z,16.30
2018-06-22T20:35:54.410Z,18.50
2018-06-22T20:38:27.416Z,17.25
2018-06-22T20:41:00.354Z,18.82
2018-06-22T20:43:33.345Z,19.07
2018-06-22T20:46:00.601Z,19.92
2018-06-22T20:48:33.691Z,18.15
2018-06-22T20:51:00.936Z,18.10
2018-06-22T20:53:28.213Z,25.20
2018-06-22T20:55:55.446Z,23.12
2018-06-22T20:58:22.969Z,18.20
2018-06-22T21:00:50.270Z,28.62
2018-06-22T21:03:17.501Z,30.62
2018-06-22T21:05:44.870Z,23.47
2018-06-22T21:08:12.234Z,15.70
2018-06-22T21:10:39.433Z,21.00
2018-06-22T21:13:07.179Z,20.43
2018-06-22T21:15:34.325Z,21.50
2018-06-22T21:18:01.643Z,26.77
2018-06-22T21:20:28.851Z,21.03
2018-06-22T21:22:56.149Z,30.83
2018-06-22T21:25:23.374Z,29.30
2018-06-22T21:27:56.217Z,24.33
2018-06-22T21:30:29.027Z,25.27
2018-06-22T21:33:02.033Z,18.53
2018-06-22T21:35:34.907Z,21.07
2018-06-22T21:38:07.810Z,21.50
2018-06-22T21:40:35.018Z,31.70
2018-06-22T21:43:02.195Z,27.13
2018-06-22T21:45:29.418Z,30.93
2018-06-22T21:47:56.631Z,16.70
2018-06-22T21:50:23.853Z,18.97
2018-06-22T21:52:51.097Z,24.60
2018-06-22T21:55:18.345Z,34.03
2018-06-22T21:57:45.566Z,22.93
2018-06-22T22:00:17.905Z,17.73
2018-06-22T22:02:45.136Z,48.40
2018-06-22T22:05:13.669Z,27.73
2018-06-22T22:07:41.580Z,20.57
2018-06-22T22:10:08.801Z,29.57
2018-06-22T22:12:36.090Z,30.97
2018-06-22T22:15:03.421Z,27.80
2018-06-22T22:17:30.803Z,28.63
2018-06-22T22:19:58.100Z,39.37
2018-06-22T22:22:25.338Z,29.67
2018-06-22T22:24:52.561Z,25.53
2018-06-22T22:27:19.764Z,23.30
2018-06-22T22:29:47.038Z,18.50
2018-06-22T22:32:14.421Z,23.70
2018-06-22T22:34:41.627Z,19.93
2018-06-22T22:37:08.834Z,33.80
2018-06-22T22:39:36.012Z,20.90
2018-06-22T22:42:03.751Z,21.50
2018-06-22T22:44:30.994Z,34.87
2018-06-22T22:46:58.214Z,41.90
2018-06-22T22:49:25.450Z,36.37
2018-06-22T22:51:52.876Z,26.77
2018-06-22T22:54:20.069Z,22.13
2018-06-22T22:56:47.302Z,36.27
2018-06-22T22:59:14.530Z,28.67
2018-06-22T23:01:41.811Z,33.57
2018-06-22T23:04:09.178Z,31.93
2018-06-22T23:06:36.428Z,23.10
2018-06-22T23:09:06.119Z,30.23
2018-06-22T23:11:33.301Z,31.60
2018-06-22T23:14:00.469Z,33.97
2018-06-22T23:16:27.702Z,27.60
2018-06-22T23:18:54.874Z,35.97
2018-06-22T23:21:22.152Z,42.43
2018-06-22T23:23:49.337Z,35.20
2018-06-22T23:26:16.605Z,22.87
2018-06-22T23:28:43.845Z,28.53
2018-06-22T23:31:11.032Z,22.93
2018-06-22T23:33:38.331Z,23.80
2018-06-22T23:36:05.632Z,26.67
2018-06-22T23:38:33.218Z,37.87
2018-06-22T23:41:00.473Z,29.80
2018-06-22T23:43:28.198Z,30.17
2018-06-22T23:45:55.414Z,19.40
2018-06-22T23:48:22.793Z,30.63
2018-06-22T23:50:50.328Z,25.40
2018-06-22T23:53:17.626Z,22.07
2018-06-22T23:55:44.857Z,39.47
2018-06-22T23:58:12.292Z,31.97
